Forside
METAR-TAF:

METAR-TAF

Lufthavne :

Mountain Empire Airport

Marion / Wytheville, Virginia, USA

Breddekreds: 36-54N, længdekreds: 081-21W, højde: 780 m

Aktuelle vejr

Denne rapport blev lavet for 13 minutter siden, kl. 21:55 UTC
Vind 16 kt fra vestsydvest med vindstød på up til 24 kt
Temperatur 4°C
Fugtighed 70%
Tryk 1014 hPa
Sigt: 16.1 km
skyfri

METAR: KMKJ 262155Z AUTO 24016G24KT 10SM CLR 04/M01 A2993 RMK AO2 T00431015

Tid: 17:08 (22:08 UTC)


TAF: fraværende

Vejrobservationer og prognoser fra mere end 4000 lufthavne (METAR og TAF).

De gule og røde prikker repræsenterer de meteorologiske stationer.

Flyt musen over at se navnet på stationen.

Så klik over at se vejr observationer og prognoser.

At skifte det kort: Klik på de grønne knapper med et sort kors for at zoome ind; på den grønne knap med en bindestreg for at zoome ud; eller på de grønne pile for tilstødende kort.


METAR-TAF: